createdAt,value
2023-04-16T00:00:55.006Z,70.85
2023-04-16T00:03:47.285Z,70.97
2023-04-16T00:06:39.455Z,71.18
2023-04-16T00:09:31.383Z,71.25
2023-04-16T00:12:23.365Z,71.46
2023-04-16T00:15:15.638Z,71.55
2023-04-16T00:18:07.774Z,71.38
2023-04-16T00:20:59.824Z,71.40
2023-04-16T00:23:51.775Z,71.39
2023-04-16T00:26:45.032Z,71.42
2023-04-16T00:29:37.176Z,71.49
2023-04-16T00:32:29.251Z,71.41
2023-04-16T00:35:11.175Z,71.51
2023-04-16T00:37:52.037Z,71.57
2023-04-16T00:40:44.000Z,71.48
2023-04-16T00:43:35.955Z,71.84
2023-04-16T00:46:20.068Z,71.88
2023-04-16T00:49:10.890Z,71.92
2023-04-16T00:52:03.582Z,72.04
2023-04-16T00:54:57.012Z,71.95
2023-04-16T00:57:49.040Z,72.00
2023-04-16T01:00:41.584Z,71.87
2023-04-16T01:03:38.833Z,71.91
2023-04-16T01:06:32.114Z,71.91
2023-04-16T01:09:24.048Z,71.89
2023-04-16T01:12:16.049Z,71.91
2023-04-16T01:15:11.242Z,71.99
2023-04-16T01:18:03.348Z,72.14
2023-04-16T01:20:55.410Z,72.18
2023-04-16T01:23:56.071Z,72.23
2023-04-16T01:26:47.989Z,72.15
2023-04-16T01:29:39.961Z,71.85
2023-04-16T01:32:34.289Z,71.47
2023-04-16T01:35:24.690Z,71.53
2023-04-16T01:38:16.624Z,71.71
2023-04-16T01:41:08.629Z,71.79
2023-04-16T01:44:00.646Z,71.94
2023-04-16T01:46:52.728Z,71.79
2023-04-16T01:49:45.680Z,72.14
2023-04-16T01:52:37.760Z,72.23
2023-04-16T01:55:29.838Z,72.37
2023-04-16T01:58:21.939Z,72.22
2023-04-16T02:01:05.825Z,72.19
2023-04-16T02:03:58.539Z,72.52
2023-04-16T02:06:50.854Z,72.64
2023-04-16T02:09:43.525Z,72.75
2023-04-16T02:12:35.444Z,72.78
2023-04-16T02:15:27.504Z,72.83
2023-04-16T02:18:19.913Z,72.77
2023-04-16T02:21:08.439Z,72.90
2023-04-16T02:24:00.447Z,73.09
2023-04-16T02:26:34.886Z,73.10
2023-04-16T02:29:26.835Z,73.17
2023-04-16T02:32:19.160Z,73.21
2023-04-16T02:35:11.761Z,73.19
2023-04-16T02:37:46.436Z,73.20
2023-04-16T02:40:38.631Z,73.05
2023-04-16T02:43:30.592Z,73.05
2023-04-16T02:46:22.601Z,73.09
2023-04-16T02:49:14.695Z,73.19
2023-04-16T02:52:07.084Z,73.14
2023-04-16T02:54:59.093Z,72.99
2023-04-16T02:57:52.810Z,72.93
2023-04-16T03:00:44.767Z,73.08
2023-04-16T03:03:36.866Z,72.75
2023-04-16T03:06:28.885Z,72.73
2023-04-16T03:09:20.855Z,72.96
2023-04-16T03:12:12.802Z,72.84
2023-04-16T03:15:05.364Z,73.10
2023-04-16T03:17:57.563Z,73.27
2023-04-16T03:20:31.966Z,73.22
2023-04-16T03:23:23.977Z,73.28
2023-04-16T03:26:15.922Z,73.28
2023-04-16T03:29:08.294Z,73.15
2023-04-16T03:32:00.469Z,73.17
2023-04-16T03:34:52.496Z,73.20
2023-04-16T03:37:26.449Z,73.14
2023-04-16T03:40:18.433Z,73.16
2023-04-16T03:43:10.469Z,73.17
2023-04-16T03:46:02.558Z,73.15
2023-04-16T03:48:39.645Z,73.17
2023-04-16T03:51:31.980Z,73.37
2023-04-16T03:54:23.956Z,73.71
2023-04-16T03:57:15.953Z,73.79
2023-04-16T04:00:10.032Z,74.01
2023-04-16T04:03:02.224Z,74.23
2023-04-16T04:05:40.277Z,74.19
2023-04-16T04:08:32.319Z,74.39
2023-04-16T04:11:24.296Z,74.32
2023-04-16T04:14:16.306Z,74.52
2023-04-16T04:17:08.312Z,74.59
2023-04-16T04:20:01.720Z,74.55
2023-04-16T04:22:54.111Z,74.72
2023-04-16T04:25:46.833Z,74.73
2023-04-16T04:28:38.845Z,74.53
2023-04-16T04:31:30.949Z,74.52
2023-04-16T04:34:22.976Z,74.74
2023-04-16T04:37:14.914Z,74.91
2023-04-16T04:39:52.039Z,74.99
2023-04-16T04:42:43.897Z,75.08
2023-04-16T04:45:35.932Z,75.16
2023-04-16T04:48:28.247Z,75.25
2023-04-16T04:51:20.280Z,75.21
2023-04-16T04:54:12.298Z,75.24
2023-04-16T04:56:54.061Z,75.19
2023-04-16T04:59:46.129Z,75.26
2023-04-16T05:02:38.551Z,75.07
2023-04-16T05:05:30.648Z,75.10
2023-04-16T05:08:22.636Z,75.01
2023-04-16T05:11:14.653Z,74.84
2023-04-16T05:14:06.852Z,74.94
2023-04-16T05:16:59.013Z,74.80
2023-04-16T05:19:51.003Z,74.99
2023-04-16T05:22:43.022Z,75.18
2023-04-16T05:25:34.992Z,75.38
2023-04-16T05:28:27.011Z,75.80
2023-04-16T05:31:19.117Z,75.72
2023-04-16T05:34:11.244Z,75.63
2023-04-16T05:37:03.184Z,75.99
2023-04-16T05:39:55.150Z,75.95
2023-04-16T05:42:29.778Z,75.68
2023-04-16T05:45:21.930Z,75.89
2023-04-16T05:48:13.920Z,75.80
2023-04-16T05:51:06.347Z,75.67
2023-04-16T05:53:58.356Z,75.81
2023-04-16T05:56:50.339Z,75.55
2023-04-16T05:59:42.302Z,75.31
2023-04-16T06:02:34.731Z,75.81
2023-04-16T06:05:27.025Z,76.12
2023-04-16T06:08:10.270Z,76.14
2023-04-16T06:11:02.379Z,75.92
2023-04-16T06:13:54.358Z,75.65
2023-04-16T06:16:46.505Z,77.54
2023-04-16T06:19:38.478Z,76.40
2023-04-16T06:22:30.604Z,74.56
2023-04-16T06:25:22.618Z,73.38
2023-04-16T06:28:14.581Z,73.07
2023-04-16T06:31:06.898Z,72.76
2023-04-16T06:33:59.092Z,72.48
2023-04-16T06:36:42.079Z,72.15
2023-04-16T06:39:34.099Z,71.46
2023-04-16T06:42:26.049Z,70.98
2023-04-16T06:45:18.212Z,70.40
2023-04-16T06:48:10.300Z,70.57
2023-04-16T06:51:02.828Z,70.71
2023-04-16T06:53:54.676Z,70.92
2023-04-16T06:56:46.793Z,70.59
2023-04-16T06:59:38.836Z,70.63
2023-04-16T07:02:31.042Z,69.91
2023-04-16T07:05:23.316Z,68.90
2023-04-16T07:08:15.449Z,68.67
2023-04-16T07:11:07.862Z,68.32
2023-04-16T07:14:00.094Z,67.49
2023-04-16T07:16:52.118Z,66.93
2023-04-16T07:19:32.757Z,66.42
2023-04-16T07:22:08.060Z,66.24
2023-04-16T07:25:00.397Z,66.29
2023-04-16T07:27:52.394Z,66.29
2023-04-16T07:30:34.003Z,65.78
2023-04-16T07:33:27.273Z,65.25
2023-04-16T07:36:19.283Z,64.90
2023-04-16T07:39:13.118Z,64.69
2023-04-16T07:41:50.491Z,64.07
2023-04-16T07:44:42.417Z,64.29
2023-04-16T07:47:34.520Z,64.10
2023-04-16T07:50:16.338Z,63.81
2023-04-16T07:52:48.743Z,63.03
2023-04-16T07:55:23.516Z,62.73
2023-04-16T07:58:15.632Z,62.63
2023-04-16T08:01:07.925Z,62.39
2023-04-16T08:04:00.219Z,62.07
2023-04-16T08:06:52.582Z,62.08
2023-04-16T08:09:52.078Z,62.27
2023-04-16T08:12:44.421Z,62.70
2023-04-16T08:15:36.877Z,62.87
2023-04-16T08:18:29.172Z,61.29
2023-04-16T08:21:21.194Z,60.72
2023-04-16T08:24:13.411Z,59.74
2023-04-16T08:26:48.132Z,58.94
2023-04-16T08:29:40.187Z,55.22
2023-04-16T08:32:14.649Z,54.74
2023-04-16T08:35:07.267Z,51.98
2023-04-16T08:38:02.192Z,51.18
2023-04-16T08:40:56.032Z,50.84
2023-04-16T08:43:49.983Z,51.10
2023-04-16T08:46:44.686Z,51.14
2023-04-16T08:49:44.323Z,48.68
2023-04-16T08:52:20.829Z,47.93
2023-04-16T08:55:15.381Z,45.64
2023-04-16T08:57:55.153Z,43.35
2023-04-16T09:00:47.394Z,41.40
2023-04-16T09:03:29.224Z,40.02
2023-04-16T09:06:21.371Z,39.65
2023-04-16T09:09:14.083Z,39.62
2023-04-16T09:12:09.208Z,40.30
2023-04-16T09:15:03.321Z,42.12
2023-04-16T09:17:40.623Z,41.01
2023-04-16T09:20:32.783Z,40.31
2023-04-16T09:23:26.007Z,39.31
2023-04-16T09:26:18.621Z,39.36
2023-04-16T09:29:10.809Z,39.51
2023-04-16T09:32:06.347Z,40.73
2023-04-16T09:35:00.654Z,40.86
2023-04-16T09:37:59.226Z,41.36
2023-04-16T09:41:09.421Z,42.22
2023-04-16T09:44:04.170Z,42.66
2023-04-16T09:46:56.254Z,42.43
2023-04-16T09:49:48.415Z,42.53
2023-04-16T09:52:40.856Z,43.09
2023-04-16T09:55:33.719Z,43.84
2023-04-16T09:58:26.063Z,44.55
2023-04-16T10:01:20.690Z,44.96
2023-04-16T10:04:12.851Z,44.50
2023-04-16T10:07:08.603Z,42.09
2023-04-16T10:10:01.253Z,40.47
2023-04-16T10:12:55.095Z,40.53
2023-04-16T10:15:47.672Z,41.57
2023-04-16T10:18:41.459Z,41.63
2023-04-16T10:21:22.636Z,40.43
2023-04-16T10:24:16.697Z,40.44
2023-04-16T10:27:08.756Z,42.70
2023-04-16T10:30:01.422Z,41.14
2023-04-16T10:32:54.357Z,39.83
2023-04-16T10:35:29.394Z,39.65
2023-04-16T10:38:29.216Z,37.91
2023-04-16T10:41:22.623Z,35.78
2023-04-16T10:44:14.622Z,34.27
2023-04-16T10:47:02.909Z,33.44
2023-04-16T10:49:55.383Z,32.63
2023-04-16T10:52:48.248Z,32.65
2023-04-16T10:55:42.322Z,32.84
2023-04-16T10:58:33.340Z,33.91
2023-04-16T11:01:33.141Z,34.66
2023-04-16T11:04:34.918Z,35.11
2023-04-16T11:07:36.165Z,35.54
2023-04-16T11:10:28.162Z,35.62
2023-04-16T11:13:20.987Z,35.57
2023-04-16T11:16:14.133Z,35.34
2023-04-16T11:19:06.167Z,34.71
2023-04-16T11:21:59.311Z,34.41
2023-04-16T11:24:57.042Z,34.82
2023-04-16T11:27:49.064Z,34.88
2023-04-16T11:30:42.503Z,34.68
2023-04-16T11:33:34.502Z,35.42
2023-04-16T11:36:09.469Z,35.66
2023-04-16T11:39:05.347Z,36.00
2023-04-16T11:41:57.360Z,35.92
2023-04-16T11:44:52.366Z,36.38
2023-04-16T11:47:51.732Z,36.37
2023-04-16T11:50:44.059Z,36.14
2023-04-16T11:53:37.502Z,36.55
2023-04-16T11:56:30.645Z,36.54
2023-04-16T11:59:24.002Z,36.55
2023-04-16T12:02:16.121Z,36.66
2023-04-16T12:05:32.209Z,37.15
2023-04-16T12:08:32.524Z,37.64
2023-04-16T12:11:44.542Z,38.02
2023-04-16T12:14:36.652Z,38.23
2023-04-16T12:17:28.929Z,38.25
2023-04-16T12:20:20.995Z,38.27
2023-04-16T12:23:23.249Z,38.06
2023-04-16T12:26:15.581Z,37.99
2023-04-16T12:29:23.602Z,37.87
2023-04-16T12:32:24.956Z,37.48
2023-04-16T12:35:37.555Z,37.79
2023-04-16T12:38:29.596Z,37.53
2023-04-16T12:41:21.913Z,37.47
2023-04-16T12:44:17.939Z,37.74
2023-04-16T12:47:06.213Z,37.60
2023-04-16T12:49:58.745Z,37.88
2023-04-16T12:52:39.790Z,38.53
2023-04-16T12:55:31.760Z,39.07
2023-04-16T12:58:23.793Z,39.05
2023-04-16T13:01:15.837Z,39.25
2023-04-16T13:04:07.991Z,39.40
2023-04-16T13:07:00.469Z,39.57
2023-04-16T13:09:52.464Z,39.46
2023-04-16T13:12:46.445Z,39.50
2023-04-16T13:15:27.034Z,39.72
2023-04-16T13:18:19.016Z,39.90
2023-04-16T13:21:12.070Z,39.88
2023-04-16T13:24:04.162Z,39.94
2023-04-16T13:26:56.798Z,39.83
2023-04-16T13:29:48.777Z,39.68
2023-04-16T13:32:41.211Z,40.10
2023-04-16T13:35:33.302Z,40.26
2023-04-16T13:38:25.294Z,40.22
2023-04-16T13:41:17.241Z,39.87
2023-04-16T13:44:09.307Z,39.80
2023-04-16T13:46:47.647Z,39.68
2023-04-16T13:49:39.855Z,39.24
2023-04-16T13:52:31.832Z,39.87
2023-04-16T13:55:23.818Z,40.22
2023-04-16T13:58:16.301Z,40.61
2023-04-16T14:01:08.358Z,40.59
2023-04-16T14:04:01.885Z,40.26
2023-04-16T14:06:53.953Z,40.15
2023-04-16T14:09:45.950Z,39.84
2023-04-16T14:12:38.107Z,39.63
2023-04-16T14:15:30.195Z,39.90
2023-04-16T14:18:11.198Z,39.47
2023-04-16T14:21:03.168Z,39.03
2023-04-16T14:23:55.287Z,38.56
2023-04-16T14:26:27.144Z,38.81
2023-04-16T14:29:19.129Z,38.97
2023-04-16T14:32:11.325Z,38.96
2023-04-16T14:34:59.718Z,38.66
2023-04-16T14:37:51.744Z,38.69
2023-04-16T14:40:43.728Z,38.93
2023-04-16T14:43:35.924Z,38.82
2023-04-16T14:46:28.017Z,38.99
2023-04-16T14:49:20.088Z,39.21
2023-04-16T14:52:12.457Z,39.25
2023-04-16T14:55:05.486Z,39.20
2023-04-16T14:57:58.082Z,39.02
2023-04-16T15:00:50.122Z,39.16
2023-04-16T15:03:43.169Z,39.49
2023-04-16T15:06:36.520Z,39.83
2023-04-16T15:09:29.100Z,39.98
2023-04-16T15:12:21.060Z,40.03
2023-04-16T15:15:13.702Z,39.54
2023-04-16T15:18:06.351Z,39.05
2023-04-16T15:20:58.432Z,39.07
2023-04-16T15:23:50.447Z,39.12
2023-04-16T15:26:32.546Z,39.23
2023-04-16T15:29:24.549Z,39.11
2023-04-16T15:32:16.571Z,39.11
2023-04-16T15:35:11.345Z,39.11
2023-04-16T15:38:03.558Z,39.13
2023-04-16T15:40:55.797Z,39.06
2023-04-16T15:43:47.842Z,38.99
2023-04-16T15:46:39.899Z,39.23
2023-04-16T15:49:31.967Z,39.12
2023-04-16T15:52:23.969Z,39.34
2023-04-16T15:55:16.958Z,39.48
2023-04-16T15:58:08.979Z,39.64
2023-04-16T16:01:01.076Z,39.66
2023-04-16T16:03:53.162Z,39.63
2023-04-16T16:06:45.306Z,39.55
2023-04-16T16:09:38.094Z,39.55
2023-04-16T16:12:30.362Z,39.80
2023-04-16T16:15:12.719Z,39.86
2023-04-16T16:18:05.159Z,39.97
2023-04-16T16:21:00.237Z,39.86
2023-04-16T16:23:52.247Z,39.92
2023-04-16T16:26:44.238Z,40.00
2023-04-16T16:29:36.307Z,40.06
2023-04-16T16:32:28.387Z,40.16
2023-04-16T16:35:20.724Z,39.96
2023-04-16T16:38:09.673Z,40.25
2023-04-16T16:41:01.681Z,40.64
2023-04-16T16:43:56.171Z,41.18
2023-04-16T16:46:48.507Z,41.29
2023-04-16T16:49:40.542Z,41.52
2023-04-16T16:52:33.444Z,42.00
2023-04-16T16:55:26.180Z,42.23
2023-04-16T16:58:18.354Z,42.48
2023-04-16T17:01:12.944Z,42.52
2023-04-16T17:04:05.300Z,42.74
2023-04-16T17:06:57.460Z,42.87
2023-04-16T17:09:49.483Z,42.76
2023-04-16T17:12:41.588Z,42.80
2023-04-16T17:15:34.409Z,42.90
2023-04-16T17:18:26.609Z,43.25
2023-04-16T17:21:18.595Z,43.34
2023-04-16T17:24:10.848Z,43.44
2023-04-16T17:27:03.210Z,43.65
2023-04-16T17:29:52.873Z,44.13
2023-04-16T17:32:27.961Z,44.11
2023-04-16T17:35:20.058Z,43.89
2023-04-16T17:38:12.075Z,44.15
2023-04-16T17:41:04.050Z,44.81
2023-04-16T17:43:56.062Z,45.23
2023-04-16T17:46:48.002Z,45.33
2023-04-16T17:49:39.966Z,45.80
2023-04-16T17:52:32.103Z,45.80
2023-04-16T17:55:24.429Z,45.86
2023-04-16T17:58:16.432Z,46.24
2023-04-16T18:01:08.764Z,46.23
2023-04-16T18:04:01.094Z,46.40
2023-04-16T18:06:53.202Z,46.80
2023-04-16T18:09:45.312Z,47.16
2023-04-16T18:12:37.447Z,47.56
2023-04-16T18:15:29.625Z,47.72
2023-04-16T18:18:21.638Z,47.73
2023-04-16T18:21:13.792Z,47.94
2023-04-16T18:24:06.688Z,48.25
2023-04-16T18:26:58.714Z,48.20
2023-04-16T18:29:51.446Z,48.44
2023-04-16T18:33:04.202Z,48.18
2023-04-16T18:35:55.511Z,48.66
2023-04-16T18:39:00.065Z,48.89
2023-04-16T18:41:52.827Z,49.18
2023-04-16T18:44:44.877Z,49.34
2023-04-16T18:47:36.955Z,49.55
2023-04-16T18:50:29.038Z,49.61
2023-04-16T18:53:21.241Z,50.03
2023-04-16T18:56:13.436Z,50.38
2023-04-16T18:59:05.468Z,50.62
2023-04-16T19:01:57.687Z,50.62
2023-04-16T19:04:49.854Z,50.95
2023-04-16T19:07:41.896Z,51.21
2023-04-16T19:10:16.618Z,51.40
2023-04-16T19:13:08.730Z,51.53
2023-04-16T19:16:02.283Z,51.92
2023-04-16T19:18:54.463Z,51.99
2023-04-16T19:21:46.418Z,52.06
2023-04-16T19:24:38.548Z,52.30
2023-04-16T19:27:15.716Z,52.42
2023-04-16T19:30:10.378Z,52.69
2023-04-16T19:33:02.407Z,52.74
2023-04-16T19:35:54.472Z,53.00
2023-04-16T19:38:46.611Z,53.09
2023-04-16T19:41:38.703Z,53.33
2023-04-16T19:44:32.392Z,53.48
2023-04-16T19:47:15.483Z,53.65
2023-04-16T19:49:52.711Z,53.91
2023-04-16T19:52:44.795Z,54.07
2023-04-16T19:55:36.900Z,54.22
2023-04-16T19:58:28.908Z,54.08
2023-04-16T20:01:20.988Z,54.15
2023-04-16T20:04:13.312Z,54.48
2023-04-16T20:07:05.478Z,54.56
2023-04-16T20:09:57.511Z,54.76
2023-04-16T20:12:50.766Z,54.99
2023-04-16T20:15:42.824Z,55.10
2023-04-16T20:18:41.362Z,55.19
2023-04-16T20:21:33.572Z,55.23
2023-04-16T20:24:26.582Z,55.37
2023-04-16T20:27:19.422Z,55.49
2023-04-16T20:30:13.193Z,55.68
2023-04-16T20:33:07.733Z,55.81
2023-04-16T20:35:59.956Z,55.92
2023-04-16T20:38:53.828Z,56.04
2023-04-16T20:41:46.848Z,56.13
2023-04-16T20:44:41.242Z,56.23
2023-04-16T20:47:34.742Z,56.33
2023-04-16T20:50:27.082Z,56.53
2023-04-16T20:53:20.157Z,56.48
2023-04-16T20:56:14.695Z,56.63
2023-04-16T20:59:06.662Z,56.70
2023-04-16T21:01:58.734Z,56.84
2023-04-16T21:04:51.071Z,56.81
2023-04-16T21:07:43.501Z,56.92
2023-04-16T21:10:35.616Z,57.08
2023-04-16T21:13:27.622Z,57.23
2023-04-16T21:16:19.744Z,57.46
2023-04-16T21:19:12.018Z,57.59
2023-04-16T21:22:04.380Z,57.57
2023-04-16T21:24:56.335Z,57.61
2023-04-16T21:27:51.193Z,57.84
2023-04-16T21:30:33.268Z,57.99
2023-04-16T21:33:25.239Z,58.10
2023-04-16T21:36:17.901Z,58.24
2023-04-16T21:39:11.048Z,58.24
2023-04-16T21:42:03.310Z,58.30
2023-04-16T21:44:55.332Z,58.50
2023-04-16T21:47:47.295Z,58.69
2023-04-16T21:50:39.477Z,58.72
2023-04-16T21:53:15.747Z,58.80
2023-04-16T21:56:08.637Z,58.85
2023-04-16T21:59:00.781Z,59.06
2023-04-16T22:01:52.895Z,59.12
2023-04-16T22:04:45.015Z,59.25
2023-04-16T22:07:37.711Z,59.33
2023-04-16T22:10:29.803Z,59.41
2023-04-16T22:13:22.840Z,59.49
2023-04-16T22:16:15.602Z,59.66
2023-04-16T22:19:07.708Z,59.70
2023-04-16T22:21:45.373Z,59.82
2023-04-16T22:24:37.322Z,60.03
2023-04-16T22:27:29.332Z,60.17
2023-04-16T22:30:21.591Z,60.32
2023-04-16T22:33:13.655Z,60.42
2023-04-16T22:36:06.243Z,60.47
2023-04-16T22:38:58.296Z,60.57
2023-04-16T22:41:32.814Z,60.61
2023-04-16T22:44:24.787Z,60.70
2023-04-16T22:47:16.736Z,60.78
2023-04-16T22:50:10.981Z,60.89
2023-04-16T22:53:03.029Z,61.00
2023-04-16T22:55:55.077Z,60.98
2023-04-16T22:58:48.924Z,61.06
2023-04-16T23:01:42.159Z,61.16
2023-04-16T23:04:34.367Z,61.32
2023-04-16T23:07:26.565Z,61.41
2023-04-16T23:10:18.770Z,61.43
2023-04-16T23:13:10.798Z,61.28
2023-04-16T23:16:02.867Z,61.42
2023-04-16T23:18:55.123Z,61.57
2023-04-16T23:21:47.119Z,61.80
2023-04-16T23:24:39.050Z,61.85
2023-04-16T23:27:32.449Z,61.91
2023-04-16T23:30:24.480Z,61.84
2023-04-16T23:33:16.499Z,61.88
2023-04-16T23:36:10.039Z,61.71
2023-04-16T23:39:02.010Z,61.66
2023-04-16T23:41:54.090Z,61.50
2023-04-16T23:44:46.155Z,61.55
2023-04-16T23:47:38.502Z,61.74
2023-04-16T23:50:30.596Z,61.75
2023-04-16T23:53:22.597Z,61.74
2023-04-16T23:56:15.417Z,61.80
2023-04-16T23:59:08.679Z,61.94
